sensor_id;sensor_type;location;lat;lon;timestamp;P1;durP1;ratioP1;P2;durP2;ratioP2
53151;SDS011;39234;53.158;6.322;2022-11-15T00:00:48;26.98;;;19.73;;
53151;SDS011;39234;53.158;6.322;2022-11-15T00:03:15;25.83;;;19.67;;
53151;SDS011;39234;53.158;6.322;2022-11-15T00:05:42;28.65;;;20.10;;
53151;SDS011;39234;53.158;6.322;2022-11-15T00:08:08;28.60;;;19.73;;
53151;SDS011;39234;53.158;6.322;2022-11-15T00:10:34;28.65;;;20.27;;
53151;SDS011;39234;53.158;6.322;2022-11-15T00:13:04;27.48;;;19.83;;
53151;SDS011;39234;53.158;6.322;2022-11-15T00:15:34;27.95;;;19.92;;
53151;SDS011;39234;53.158;6.322;2022-11-15T00:18:04;31.30;;;20.80;;
53151;SDS011;39234;53.158;6.322;2022-11-15T00:20:33;27.05;;;20.02;;
53151;SDS011;39234;53.158;6.322;2022-11-15T00:22:59;27.27;;;20.02;;
53151;SDS011;39234;53.158;6.322;2022-11-15T00:25:25;32.85;;;20.70;;
53151;SDS011;39234;53.158;6.322;2022-11-15T00:27:54;29.25;;;20.52;;
53151;SDS011;39234;53.158;6.322;2022-11-15T00:30:22;31.77;;;20.50;;
53151;SDS011;39234;53.158;6.322;2022-11-15T00:32:48;29.13;;;19.35;;
53151;SDS011;39234;53.158;6.322;2022-11-15T00:35:14;29.35;;;19.52;;
53151;SDS011;39234;53.158;6.322;2022-11-15T00:37:39;28.75;;;19.13;;
53151;SDS011;39234;53.158;6.322;2022-11-15T00:40:05;29.17;;;19.83;;
53151;SDS011;39234;53.158;6.322;2022-11-15T00:42:32;26.45;;;19.48;;
53151;SDS011;39234;53.158;6.322;2022-11-15T00:44:58;27.95;;;20.92;;
53151;SDS011;39234;53.158;6.322;2022-11-15T00:47:24;29.67;;;20.83;;
53151;SDS011;39234;53.158;6.322;2022-11-15T00:49:49;30.02;;;20.00;;
53151;SDS011;39234;53.158;6.322;2022-11-15T00:52:15;26.67;;;19.88;;
53151;SDS011;39234;53.158;6.322;2022-11-15T00:54:41;30.33;;;21.38;;
53151;SDS011;39234;53.158;6.322;2022-11-15T00:57:06;28.30;;;18.85;;
53151;SDS011;39234;53.158;6.322;2022-11-15T00:59:32;27.90;;;19.85;;
53151;SDS011;39234;53.158;6.322;2022-11-15T01:01:58;26.75;;;19.88;;
53151;SDS011;39234;53.158;6.322;2022-11-15T01:04:24;28.35;;;19.58;;
53151;SDS011;39234;53.158;6.322;2022-11-15T01:06:49;25.98;;;19.10;;
53151;SDS011;39234;53.158;6.322;2022-11-15T01:09:15;25.65;;;19.38;;
53151;SDS011;39234;53.158;6.322;2022-11-15T01:11:41;28.48;;;21.05;;
53151;SDS011;39234;53.158;6.322;2022-11-15T01:14:06;26.83;;;19.13;;
53151;SDS011;39234;53.158;6.322;2022-11-15T01:16:32;29.98;;;20.63;;
53151;SDS011;39234;53.158;6.322;2022-11-15T01:18:58;25.52;;;20.50;;
53151;SDS011;39234;53.158;6.322;2022-11-15T01:21:24;28.70;;;20.88;;
53151;SDS011;39234;53.158;6.322;2022-11-15T01:23:53;31.30;;;22.75;;
53151;SDS011;39234;53.158;6.322;2022-11-15T01:26:22;28.27;;;22.02;;
53151;SDS011;39234;53.158;6.322;2022-11-15T01:28:48;28.73;;;23.02;;
53151;SDS011;39234;53.158;6.322;2022-11-15T01:31:15;29.05;;;22.50;;
53151;SDS011;39234;53.158;6.322;2022-11-15T01:33:45;29.17;;;22.35;;
53151;SDS011;39234;53.158;6.322;2022-11-15T01:36:13;29.20;;;21.33;;
53151;SDS011;39234;53.158;6.322;2022-11-15T01:38:40;29.95;;;22.63;;
53151;SDS011;39234;53.158;6.322;2022-11-15T01:41:06;30.23;;;22.88;;
53151;SDS011;39234;53.158;6.322;2022-11-15T01:43:42;31.20;;;22.77;;
53151;SDS011;39234;53.158;6.322;2022-11-15T01:49:01;30.27;;;22.25;;
53151;SDS011;39234;53.158;6.322;2022-11-15T01:51:31;36.80;;;23.55;;
53151;SDS011;39234;53.158;6.322;2022-11-15T01:54:00;29.00;;;21.75;;
53151;SDS011;39234;53.158;6.322;2022-11-15T01:56:33;32.33;;;23.40;;
53151;SDS011;39234;53.158;6.322;2022-11-15T01:59:04;32.17;;;22.27;;
53151;SDS011;39234;53.158;6.322;2022-11-15T02:01:32;28.55;;;21.55;;
53151;SDS011;39234;53.158;6.322;2022-11-15T02:04:18;31.10;;;23.13;;
53151;SDS011;39234;53.158;6.322;2022-11-15T02:06:49;32.83;;;22.85;;
53151;SDS011;39234;53.158;6.322;2022-11-15T02:09:16;31.77;;;21.88;;
53151;SDS011;39234;53.158;6.322;2022-11-15T02:11:42;29.38;;;22.48;;
53151;SDS011;39234;53.158;6.322;2022-11-15T02:14:10;35.58;;;22.85;;
53151;SDS011;39234;53.158;6.322;2022-11-15T02:22:36;31.45;;;21.77;;
53151;SDS011;39234;53.158;6.322;2022-11-15T02:31:32;29.38;;;21.35;;
53151;SDS011;39234;53.158;6.322;2022-11-15T02:35:59;36.13;;;21.60;;
53151;SDS011;39234;53.158;6.322;2022-11-15T02:38:40;35.28;;;21.45;;
53151;SDS011;39234;53.158;6.322;2022-11-15T02:41:15;31.10;;;21.10;;
53151;SDS011;39234;53.158;6.322;2022-11-15T02:43:52;37.75;;;23.33;;
53151;SDS011;39234;53.158;6.322;2022-11-15T02:46:27;35.95;;;20.63;;
53151;SDS011;39234;53.158;6.322;2022-11-15T02:49:15;38.63;;;23.08;;
53151;SDS011;39234;53.158;6.322;2022-11-15T02:51:41;34.90;;;21.77;;
53151;SDS011;39234;53.158;6.322;2022-11-15T02:54:14;36.45;;;24.00;;
53151;SDS011;39234;53.158;6.322;2022-11-15T02:56:48;41.20;;;23.17;;
53151;SDS011;39234;53.158;6.322;2022-11-15T03:02:17;38.33;;;23.70;;
53151;SDS011;39234;53.158;6.322;2022-11-15T03:05:20;43.97;;;24.00;;
53151;SDS011;39234;53.158;6.322;2022-11-15T03:13:25;38.85;;;23.10;;
53151;SDS011;39234;53.158;6.322;2022-11-15T03:16:02;39.58;;;23.65;;
53151;SDS011;39234;53.158;6.322;2022-11-15T03:19:06;38.33;;;22.73;;
53151;SDS011;39234;53.158;6.322;2022-11-15T03:21:43;41.25;;;23.90;;
53151;SDS011;39234;53.158;6.322;2022-11-15T03:24:11;40.72;;;23.77;;
53151;SDS011;39234;53.158;6.322;2022-11-15T03:26:39;44.30;;;24.20;;
53151;SDS011;39234;53.158;6.322;2022-11-15T03:29:16;39.17;;;23.13;;
53151;SDS011;39234;53.158;6.322;2022-11-15T03:31:49;42.13;;;23.83;;
53151;SDS011;39234;53.158;6.322;2022-11-15T03:37:01;46.87;;;24.53;;
53151;SDS011;39234;53.158;6.322;2022-11-15T03:39:27;39.90;;;24.13;;
53151;SDS011;39234;53.158;6.322;2022-11-15T03:47:20;46.17;;;24.35;;
53151;SDS011;39234;53.158;6.322;2022-11-15T03:49:52;45.53;;;25.13;;
53151;SDS011;39234;53.158;6.322;2022-11-15T03:52:21;43.72;;;24.30;;
53151;SDS011;39234;53.158;6.322;2022-11-15T03:54:54;46.90;;;24.50;;
53151;SDS011;39234;53.158;6.322;2022-11-15T03:57:21;44.72;;;24.40;;
53151;SDS011;39234;53.158;6.322;2022-11-15T03:59:47;44.22;;;24.30;;
53151;SDS011;39234;53.158;6.322;2022-11-15T04:02:13;46.78;;;24.50;;
53151;SDS011;39234;53.158;6.322;2022-11-15T04:04:39;45.58;;;24.60;;
53151;SDS011;39234;53.158;6.322;2022-11-15T04:07:05;47.25;;;25.17;;
53151;SDS011;39234;53.158;6.322;2022-11-15T04:09:31;50.90;;;26.08;;
53151;SDS011;39234;53.158;6.322;2022-11-15T04:11:56;47.70;;;26.85;;
53151;SDS011;39234;53.158;6.322;2022-11-15T04:14:22;44.80;;;24.38;;
53151;SDS011;39234;53.158;6.322;2022-11-15T04:16:48;54.78;;;27.15;;
53151;SDS011;39234;53.158;6.322;2022-11-15T04:19:14;52.38;;;25.70;;
53151;SDS011;39234;53.158;6.322;2022-11-15T04:21:58;53.75;;;26.30;;
53151;SDS011;39234;53.158;6.322;2022-11-15T04:24:42;56.45;;;26.65;;
53151;SDS011;39234;53.158;6.322;2022-11-15T04:27:08;54.45;;;26.38;;
53151;SDS011;39234;53.158;6.322;2022-11-15T04:29:34;52.10;;;26.05;;
53151;SDS011;39234;53.158;6.322;2022-11-15T04:32:00;56.63;;;25.35;;
53151;SDS011;39234;53.158;6.322;2022-11-15T04:34:29;54.53;;;24.55;;
53151;SDS011;39234;53.158;6.322;2022-11-15T04:36:55;51.25;;;26.65;;
53151;SDS011;39234;53.158;6.322;2022-11-15T04:39:36;47.78;;;25.73;;
53151;SDS011;39234;53.158;6.322;2022-11-15T04:42:02;49.80;;;24.88;;
53151;SDS011;39234;53.158;6.322;2022-11-15T04:44:28;49.20;;;25.50;;
53151;SDS011;39234;53.158;6.322;2022-11-15T04:46:54;50.00;;;25.35;;
53151;SDS011;39234;53.158;6.322;2022-11-15T04:49:20;55.20;;;28.35;;
53151;SDS011;39234;53.158;6.322;2022-11-15T04:51:45;55.15;;;26.73;;
53151;SDS011;39234;53.158;6.322;2022-11-15T04:54:11;58.38;;;26.38;;
53151;SDS011;39234;53.158;6.322;2022-11-15T04:56:37;56.63;;;26.70;;
53151;SDS011;39234;53.158;6.322;2022-11-15T04:59:02;51.55;;;25.73;;
53151;SDS011;39234;53.158;6.322;2022-11-15T05:01:28;59.38;;;26.55;;
53151;SDS011;39234;53.158;6.322;2022-11-15T05:03:54;54.25;;;26.98;;
53151;SDS011;39234;53.158;6.322;2022-11-15T05:06:38;55.72;;;27.38;;
53151;SDS011;39234;53.158;6.322;2022-11-15T05:09:04;58.38;;;28.02;;
53151;SDS011;39234;53.158;6.322;2022-11-15T05:11:30;59.90;;;29.05;;
53151;SDS011;39234;53.158;6.322;2022-11-15T05:13:55;59.28;;;29.10;;
53151;SDS011;39234;53.158;6.322;2022-11-15T05:16:21;66.68;;;29.33;;
53151;SDS011;39234;53.158;6.322;2022-11-15T05:18:50;58.55;;;28.75;;
53151;SDS011;39234;53.158;6.322;2022-11-15T05:21:17;67.00;;;29.35;;
53151;SDS011;39234;53.158;6.322;2022-11-15T05:23:43;60.05;;;28.58;;
53151;SDS011;39234;53.158;6.322;2022-11-15T05:26:09;65.63;;;31.17;;
53151;SDS011;39234;53.158;6.322;2022-11-15T05:28:35;68.00;;;30.23;;
53151;SDS011;39234;53.158;6.322;2022-11-15T05:31:08;77.78;;;32.97;;
53151;SDS011;39234;53.158;6.322;2022-11-15T05:33:36;72.57;;;32.90;;
53151;SDS011;39234;53.158;6.322;2022-11-15T05:38:32;78.22;;;34.72;;
53151;SDS011;39234;53.158;6.322;2022-11-15T05:40:59;84.35;;;34.70;;
53151;SDS011;39234;53.158;6.322;2022-11-15T05:43:25;77.85;;;34.10;;
53151;SDS011;39234;53.158;6.322;2022-11-15T05:45:52;77.38;;;33.33;;
53151;SDS011;39234;53.158;6.322;2022-11-15T05:48:18;85.82;;;34.50;;
53151;SDS011;39234;53.158;6.322;2022-11-15T05:50:45;82.68;;;34.88;;
53151;SDS011;39234;53.158;6.322;2022-11-15T05:53:12;81.47;;;35.03;;
53151;SDS011;39234;53.158;6.322;2022-11-15T05:55:41;79.95;;;35.10;;
53151;SDS011;39234;53.158;6.322;2022-11-15T05:58:07;95.28;;;38.15;;
53151;SDS011;39234;53.158;6.322;2022-11-15T06:00:33;83.90;;;36.75;;
53151;SDS011;39234;53.158;6.322;2022-11-15T06:02:59;84.55;;;35.40;;
53151;SDS011;39234;53.158;6.322;2022-11-15T06:05:25;100.78;;;39.42;;
53151;SDS011;39234;53.158;6.322;2022-11-15T06:07:51;93.85;;;37.83;;
53151;SDS011;39234;53.158;6.322;2022-11-15T06:10:17;90.35;;;38.70;;
53151;SDS011;39234;53.158;6.322;2022-11-15T06:12:43;89.80;;;35.60;;
53151;SDS011;39234;53.158;6.322;2022-11-15T06:15:08;86.68;;;36.78;;
53151;SDS011;39234;53.158;6.322;2022-11-15T06:17:34;85.63;;;37.67;;
53151;SDS011;39234;53.158;6.322;2022-11-15T06:20:00;109.32;;;41.05;;
53151;SDS011;39234;53.158;6.322;2022-11-15T06:22:26;102.88;;;43.20;;
53151;SDS011;39234;53.158;6.322;2022-11-15T06:24:51;87.30;;;38.22;;
53151;SDS011;39234;53.158;6.322;2022-11-15T06:27:17;100.88;;;40.17;;
53151;SDS011;39234;53.158;6.322;2022-11-15T06:29:43;97.47;;;39.60;;
53151;SDS011;39234;53.158;6.322;2022-11-15T06:32:08;97.75;;;40.53;;
53151;SDS011;39234;53.158;6.322;2022-11-15T06:34:34;131.70;;;45.60;;
53151;SDS011;39234;53.158;6.322;2022-11-15T06:37:01;128.07;;;45.05;;
53151;SDS011;39234;53.158;6.322;2022-11-15T06:39:27;119.03;;;42.90;;
53151;SDS011;39234;53.158;6.322;2022-11-15T06:41:53;115.80;;;44.13;;
53151;SDS011;39234;53.158;6.322;2022-11-15T06:44:19;128.57;;;45.92;;
53151;SDS011;39234;53.158;6.322;2022-11-15T06:46:44;119.93;;;45.30;;
53151;SDS011;39234;53.158;6.322;2022-11-15T06:49:10;116.10;;;44.70;;
53151;SDS011;39234;53.158;6.322;2022-11-15T06:51:36;128.32;;;45.88;;
53151;SDS011;39234;53.158;6.322;2022-11-15T06:54:01;125.93;;;45.28;;
53151;SDS011;39234;53.158;6.322;2022-11-15T06:56:27;120.47;;;44.47;;
53151;SDS011;39234;53.158;6.322;2022-11-15T06:58:53;120.97;;;45.83;;
53151;SDS011;39234;53.158;6.322;2022-11-15T07:01:20;123.00;;;45.33;;
53151;SDS011;39234;53.158;6.322;2022-11-15T07:03:45;111.03;;;44.97;;
53151;SDS011;39234;53.158;6.322;2022-11-15T07:06:11;117.90;;;45.83;;
53151;SDS011;39234;53.158;6.322;2022-11-15T07:08:37;106.85;;;44.50;;
53151;SDS011;39234;53.158;6.322;2022-11-15T07:11:04;110.63;;;44.22;;
53151;SDS011;39234;53.158;6.322;2022-11-15T07:13:32;104.97;;;42.45;;
53151;SDS011;39234;53.158;6.322;2022-11-15T07:16:01;110.90;;;44.33;;
53151;SDS011;39234;53.158;6.322;2022-11-15T07:18:31;101.75;;;44.60;;
53151;SDS011;39234;53.158;6.322;2022-11-15T07:21:00;98.13;;;45.13;;
53151;SDS011;39234;53.158;6.322;2022-11-15T07:23:27;104.35;;;44.45;;
53151;SDS011;39234;53.158;6.322;2022-11-15T07:25:53;99.55;;;43.30;;
53151;SDS011;39234;53.158;6.322;2022-11-15T07:28:18;89.13;;;40.95;;
53151;SDS011;39234;53.158;6.322;2022-11-15T07:30:44;98.63;;;43.35;;
53151;SDS011;39234;53.158;6.322;2022-11-15T07:33:10;102.97;;;42.90;;
53151;SDS011;39234;53.158;6.322;2022-11-15T07:35:35;94.35;;;42.60;;
53151;SDS011;39234;53.158;6.322;2022-11-15T07:38:02;93.75;;;41.47;;
53151;SDS011;39234;53.158;6.322;2022-11-15T07:40:30;89.43;;;40.88;;
53151;SDS011;39234;53.158;6.322;2022-11-15T07:43:06;87.35;;;40.75;;
53151;SDS011;39234;53.158;6.322;2022-11-15T07:45:33;88.10;;;41.38;;
53151;SDS011;39234;53.158;6.322;2022-11-15T07:47:59;78.68;;;40.25;;
53151;SDS011;39234;53.158;6.322;2022-11-15T07:50:26;76.32;;;39.20;;
53151;SDS011;39234;53.158;6.322;2022-11-15T07:52:55;83.80;;;39.92;;
53151;SDS011;39234;53.158;6.322;2022-11-15T07:55:26;75.05;;;39.45;;
53151;SDS011;39234;53.158;6.322;2022-11-15T07:57:59;79.00;;;39.17;;
53151;SDS011;39234;53.158;6.322;2022-11-15T08:00:29;74.03;;;38.97;;
53151;SDS011;39234;53.158;6.322;2022-11-15T08:03:05;75.53;;;37.53;;
53151;SDS011;39234;53.158;6.322;2022-11-15T08:05:38;67.38;;;36.95;;
53151;SDS011;39234;53.158;6.322;2022-11-15T08:08:05;73.35;;;37.50;;
53151;SDS011;39234;53.158;6.322;2022-11-15T08:10:32;86.30;;;38.33;;
53151;SDS011;39234;53.158;6.322;2022-11-15T08:12:59;71.57;;;37.97;;
53151;SDS011;39234;53.158;6.322;2022-11-15T08:15:26;68.30;;;36.53;;
53151;SDS011;39234;53.158;6.322;2022-11-15T08:17:53;67.75;;;35.63;;
53151;SDS011;39234;53.158;6.322;2022-11-15T08:20:20;64.72;;;37.17;;
53151;SDS011;39234;53.158;6.322;2022-11-15T08:22:45;64.80;;;36.55;;
53151;SDS011;39234;53.158;6.322;2022-11-15T08:25:11;60.00;;;35.33;;
53151;SDS011;39234;53.158;6.322;2022-11-15T08:27:37;61.28;;;34.05;;
53151;SDS011;39234;53.158;6.322;2022-11-15T08:30:02;63.30;;;35.30;;
53151;SDS011;39234;53.158;6.322;2022-11-15T08:32:29;56.22;;;34.83;;
53151;SDS011;39234;53.158;6.322;2022-11-15T08:34:56;59.65;;;35.72;;
53151;SDS011;39234;53.158;6.322;2022-11-15T08:37:21;60.22;;;35.35;;
53151;SDS011;39234;53.158;6.322;2022-11-15T08:39:47;56.88;;;33.08;;
53151;SDS011;39234;53.158;6.322;2022-11-15T08:42:13;51.70;;;32.97;;
53151;SDS011;39234;53.158;6.322;2022-11-15T08:44:40;57.92;;;34.45;;
53151;SDS011;39234;53.158;6.322;2022-11-15T08:47:05;52.70;;;33.28;;
53151;SDS011;39234;53.158;6.322;2022-11-15T08:49:32;56.10;;;33.38;;
53151;SDS011;39234;53.158;6.322;2022-11-15T08:51:57;53.08;;;32.22;;
53151;SDS011;39234;53.158;6.322;2022-11-15T08:54:23;48.13;;;31.15;;
53151;SDS011;39234;53.158;6.322;2022-11-15T08:56:49;51.40;;;29.92;;
53151;SDS011;39234;53.158;6.322;2022-11-15T08:59:14;48.53;;;30.25;;
53151;SDS011;39234;53.158;6.322;2022-11-15T09:01:40;47.45;;;30.25;;
53151;SDS011;39234;53.158;6.322;2022-11-15T09:04:06;40.92;;;28.98;;
53151;SDS011;39234;53.158;6.322;2022-11-15T09:06:32;42.22;;;27.60;;
53151;SDS011;39234;53.158;6.322;2022-11-15T09:08:57;40.33;;;28.15;;
53151;SDS011;39234;53.158;6.322;2022-11-15T09:11:25;43.92;;;27.85;;
53151;SDS011;39234;53.158;6.322;2022-11-15T09:13:51;44.08;;;26.48;;
53151;SDS011;39234;53.158;6.322;2022-11-15T09:16:17;40.83;;;27.95;;
53151;SDS011;39234;53.158;6.322;2022-11-15T09:18:43;42.00;;;26.58;;
53151;SDS011;39234;53.158;6.322;2022-11-15T09:21:09;41.30;;;26.52;;
53151;SDS011;39234;53.158;6.322;2022-11-15T09:23:35;37.90;;;26.10;;
53151;SDS011;39234;53.158;6.322;2022-11-15T09:26:02;36.45;;;25.98;;
53151;SDS011;39234;53.158;6.322;2022-11-15T09:28:29;37.90;;;25.83;;
53151;SDS011;39234;53.158;6.322;2022-11-15T09:30:59;39.03;;;26.30;;
53151;SDS011;39234;53.158;6.322;2022-11-15T09:33:26;40.63;;;27.00;;
53151;SDS011;39234;53.158;6.322;2022-11-15T09:35:53;35.22;;;25.48;;
53151;SDS011;39234;53.158;6.322;2022-11-15T09:38:19;36.28;;;26.65;;
53151;SDS011;39234;53.158;6.322;2022-11-15T09:40:46;35.78;;;25.13;;
53151;SDS011;39234;53.158;6.322;2022-11-15T09:48:55;34.65;;;24.52;;
53151;SDS011;39234;53.158;6.322;2022-11-15T09:56:31;33.10;;;23.40;;
53151;SDS011;39234;53.158;6.322;2022-11-15T10:02:02;33.72;;;23.20;;
53151;SDS011;39234;53.158;6.322;2022-11-15T10:07:27;29.63;;;22.80;;
53151;SDS011;39234;53.158;6.322;2022-11-15T10:12:44;30.85;;;22.23;;
53151;SDS011;39234;53.158;6.322;2022-11-15T10:15:13;32.78;;;22.13;;
53151;SDS011;39234;53.158;6.322;2022-11-15T10:17:54;37.10;;;22.48;;
53151;SDS011;39234;53.158;6.322;2022-11-15T10:20:22;34.08;;;22.13;;
53151;SDS011;39234;53.158;6.322;2022-11-15T10:30:54;30.30;;;21.77;;
53151;SDS011;39234;53.158;6.322;2022-11-15T10:41:16;25.00;;;19.45;;
53151;SDS011;39234;53.158;6.322;2022-11-15T10:43:43;28.13;;;20.42;;
53151;SDS011;39234;53.158;6.322;2022-11-15T10:46:19;29.30;;;18.95;;
53151;SDS011;39234;53.158;6.322;2022-11-15T10:48:46;26.52;;;17.83;;
53151;SDS011;39234;53.158;6.322;2022-11-15T10:51:25;26.08;;;19.23;;
53151;SDS011;39234;53.158;6.322;2022-11-15T10:53:58;27.50;;;18.92;;
53151;SDS011;39234;53.158;6.322;2022-11-15T10:56:26;27.60;;;17.55;;
53151;SDS011;39234;53.158;6.322;2022-11-15T10:58:53;29.73;;;17.35;;
53151;SDS011;39234;53.158;6.322;2022-11-15T11:01:22;25.73;;;16.95;;
53151;SDS011;39234;53.158;6.322;2022-11-15T11:09:47;23.35;;;16.10;;
53151;SDS011;39234;53.158;6.322;2022-11-15T11:12:09;19.70;;;14.75;;
53151;SDS011;39234;53.158;6.322;2022-11-15T11:14:37;25.80;;;15.70;;
53151;SDS011;39234;53.158;6.322;2022-11-15T11:17:05;18.17;;;14.48;;
53151;SDS011;39234;53.158;6.322;2022-11-15T11:23:03;19.08;;;13.32;;
53151;SDS011;39234;53.158;6.322;2022-11-15T11:25:36;27.17;;;15.13;;
53151;SDS011;39234;53.158;6.322;2022-11-15T11:36:46;17.08;;;11.00;;
53151;SDS011;39234;53.158;6.322;2022-11-15T11:39:58;15.15;;;10.90;;
53151;SDS011;39234;53.158;6.322;2022-11-15T11:47:36;14.10;;;9.98;;
53151;SDS011;39234;53.158;6.322;2022-11-15T11:50:18;14.00;;;8.65;;
53151;SDS011;39234;53.158;6.322;2022-11-15T11:55:15;12.82;;;7.38;;
53151;SDS011;39234;53.158;6.322;2022-11-15T11:58:01;11.98;;;6.47;;
53151;SDS011;39234;53.158;6.322;2022-11-15T12:00:51;12.63;;;6.07;;
53151;SDS011;39234;53.158;6.322;2022-11-15T12:05:57;9.15;;;5.28;;
53151;SDS011;39234;53.158;6.322;2022-11-15T12:08:47;11.23;;;5.30;;
53151;SDS011;39234;53.158;6.322;2022-11-15T12:11:29;11.90;;;5.18;;
53151;SDS011;39234;53.158;6.322;2022-11-15T12:16:56;8.00;;;3.70;;
53151;SDS011;39234;53.158;6.322;2022-11-15T12:19:23;8.15;;;4.50;;
53151;SDS011;39234;53.158;6.322;2022-11-15T12:25:21;9.02;;;4.35;;
53151;SDS011;39234;53.158;6.322;2022-11-15T12:30:12;8.43;;;3.70;;
53151;SDS011;39234;53.158;6.322;2022-11-15T12:32:59;9.98;;;4.50;;
53151;SDS011;39234;53.158;6.322;2022-11-15T12:37:53;7.40;;;4.00;;
53151;SDS011;39234;53.158;6.322;2022-11-15T12:40:23;7.55;;;3.67;;
53151;SDS011;39234;53.158;6.322;2022-11-15T12:43:03;7.25;;;3.92;;
53151;SDS011;39234;53.158;6.322;2022-11-15T12:45:39;10.02;;;4.00;;
53151;SDS011;39234;53.158;6.322;2022-11-15T12:53:34;8.20;;;3.25;;
53151;SDS011;39234;53.158;6.322;2022-11-15T13:06:50;8.52;;;3.63;;
53151;SDS011;39234;53.158;6.322;2022-11-15T13:10:14;9.50;;;3.50;;
53151;SDS011;39234;53.158;6.322;2022-11-15T13:12:11;10.43;;;3.83;;
53151;SDS011;39234;53.158;6.322;2022-11-15T13:14:54;6.30;;;3.15;;
53151;SDS011;39234;53.158;6.322;2022-11-15T13:20:31;10.10;;;3.20;;
53151;SDS011;39234;53.158;6.322;2022-11-15T13:22:41;11.70;;;3.40;;
53151;SDS011;39234;53.158;6.322;2022-11-15T13:33:36;7.25;;;2.40;;
53151;SDS011;39234;53.158;6.322;2022-11-15T13:36:09;6.45;;;2.45;;
53151;SDS011;39234;53.158;6.322;2022-11-15T13:38:44;3.67;;;1.90;;
53151;SDS011;39234;53.158;6.322;2022-11-15T13:41:30;6.68;;;2.40;;
53151;SDS011;39234;53.158;6.322;2022-11-15T13:43:58;6.13;;;2.28;;
53151;SDS011;39234;53.158;6.322;2022-11-15T13:46:34;6.53;;;2.67;;
53151;SDS011;39234;53.158;6.322;2022-11-15T13:49:03;6.00;;;2.40;;
53151;SDS011;39234;53.158;6.322;2022-11-15T13:51:37;5.68;;;2.30;;
53151;SDS011;39234;53.158;6.322;2022-11-15T13:59:26;6.78;;;1.90;;
53151;SDS011;39234;53.158;6.322;2022-11-15T14:01:54;5.75;;;1.95;;
53151;SDS011;39234;53.158;6.322;2022-11-15T14:04:22;4.85;;;2.10;;
53151;SDS011;39234;53.158;6.322;2022-11-15T14:06:53;8.50;;;2.63;;
53151;SDS011;39234;53.158;6.322;2022-11-15T14:11:59;7.25;;;2.83;;
53151;SDS011;39234;53.158;6.322;2022-11-15T14:14:26;7.28;;;2.60;;
53151;SDS011;39234;53.158;6.322;2022-11-15T14:16:57;7.43;;;2.30;;
53151;SDS011;39234;53.158;6.322;2022-11-15T14:27:38;4.38;;;1.70;;
53151;SDS011;39234;53.158;6.322;2022-11-15T14:30:04;5.68;;;1.50;;
53151;SDS011;39234;53.158;6.322;2022-11-15T14:35:14;3.90;;;1.50;;
53151;SDS011;39234;53.158;6.322;2022-11-15T14:37:42;5.70;;;1.33;;
53151;SDS011;39234;53.158;6.322;2022-11-15T14:40:08;7.20;;;1.98;;
53151;SDS011;39234;53.158;6.322;2022-11-15T14:42:37;4.68;;;1.65;;
53151;SDS011;39234;53.158;6.322;2022-11-15T14:45:04;5.53;;;1.80;;
53151;SDS011;39234;53.158;6.322;2022-11-15T14:47:36;5.70;;;2.00;;
53151;SDS011;39234;53.158;6.322;2022-11-15T14:50:02;5.07;;;1.83;;
53151;SDS011;39234;53.158;6.322;2022-11-15T14:52:29;6.38;;;1.95;;
53151;SDS011;39234;53.158;6.322;2022-11-15T14:55:04;5.30;;;2.20;;
53151;SDS011;39234;53.158;6.322;2022-11-15T14:57:46;5.75;;;2.00;;
53151;SDS011;39234;53.158;6.322;2022-11-15T15:00:12;4.57;;;1.70;;
53151;SDS011;39234;53.158;6.322;2022-11-15T15:02:38;5.90;;;1.70;;
53151;SDS011;39234;53.158;6.322;2022-11-15T15:05:25;6.70;;;1.63;;
53151;SDS011;39234;53.158;6.322;2022-11-15T15:07:56;5.63;;;1.40;;
53151;SDS011;39234;53.158;6.322;2022-11-15T15:10:22;6.13;;;1.30;;
53151;SDS011;39234;53.158;6.322;2022-11-15T15:12:48;4.50;;;1.30;;
53151;SDS011;39234;53.158;6.322;2022-11-15T15:15:16;3.58;;;1.30;;
53151;SDS011;39234;53.158;6.322;2022-11-15T15:18:01;3.38;;;1.00;;
53151;SDS011;39234;53.158;6.322;2022-11-15T15:20:29;5.50;;;1.50;;
53151;SDS011;39234;53.158;6.322;2022-11-15T15:22:55;5.63;;;1.42;;
53151;SDS011;39234;53.158;6.322;2022-11-15T15:27:48;6.45;;;1.23;;
53151;SDS011;39234;53.158;6.322;2022-11-15T15:30:14;4.20;;;1.15;;
53151;SDS011;39234;53.158;6.322;2022-11-15T15:32:40;7.07;;;1.63;;
53151;SDS011;39234;53.158;6.322;2022-11-15T15:35:07;5.15;;;1.55;;
53151;SDS011;39234;53.158;6.322;2022-11-15T15:37:35;4.88;;;1.30;;
53151;SDS011;39234;53.158;6.322;2022-11-15T15:40:01;4.65;;;1.42;;
53151;SDS011;39234;53.158;6.322;2022-11-15T15:42:26;4.53;;;1.70;;
53151;SDS011;39234;53.158;6.322;2022-11-15T15:44:52;5.38;;;1.67;;
53151;SDS011;39234;53.158;6.322;2022-11-15T15:47:21;4.82;;;1.83;;
53151;SDS011;39234;53.158;6.322;2022-11-15T15:49:48;5.18;;;1.85;;
53151;SDS011;39234;53.158;6.322;2022-11-15T15:52:15;6.78;;;2.03;;
53151;SDS011;39234;53.158;6.322;2022-11-15T15:54:42;3.80;;;1.90;;
53151;SDS011;39234;53.158;6.322;2022-11-15T15:57:08;8.73;;;2.20;;
53151;SDS011;39234;53.158;6.322;2022-11-15T15:59:36;5.72;;;2.58;;
53151;SDS011;39234;53.158;6.322;2022-11-15T16:02:02;5.05;;;2.45;;
53151;SDS011;39234;53.158;6.322;2022-11-15T16:04:28;8.70;;;2.80;;
53151;SDS011;39234;53.158;6.322;2022-11-15T16:07:02;4.00;;;2.53;;
53151;SDS011;39234;53.158;6.322;2022-11-15T16:09:29;5.13;;;2.58;;
53151;SDS011;39234;53.158;6.322;2022-11-15T16:12:13;5.63;;;3.20;;
53151;SDS011;39234;53.158;6.322;2022-11-15T16:14:41;6.20;;;3.20;;
53151;SDS011;39234;53.158;6.322;2022-11-15T16:17:50;5.43;;;3.15;;
53151;SDS011;39234;53.158;6.322;2022-11-15T16:19:58;14.52;;;3.83;;
53151;SDS011;39234;53.158;6.322;2022-11-15T16:22:23;7.35;;;3.80;;
53151;SDS011;39234;53.158;6.322;2022-11-15T16:24:49;6.32;;;3.75;;
53151;SDS011;39234;53.158;6.322;2022-11-15T16:27:15;6.57;;;4.10;;
53151;SDS011;39234;53.158;6.322;2022-11-15T16:29:44;7.22;;;3.72;;
53151;SDS011;39234;53.158;6.322;2022-11-15T16:32:10;5.93;;;3.88;;
53151;SDS011;39234;53.158;6.322;2022-11-15T16:34:37;9.38;;;3.80;;
53151;SDS011;39234;53.158;6.322;2022-11-15T16:37:03;7.45;;;3.47;;
53151;SDS011;39234;53.158;6.322;2022-11-15T16:39:29;7.50;;;3.90;;
53151;SDS011;39234;53.158;6.322;2022-11-15T16:41:56;7.72;;;3.40;;
53151;SDS011;39234;53.158;6.322;2022-11-15T16:44:22;7.95;;;4.13;;
53151;SDS011;39234;53.158;6.322;2022-11-15T16:46:49;7.20;;;3.90;;
53151;SDS011;39234;53.158;6.322;2022-11-15T16:49:18;6.88;;;3.47;;
53151;SDS011;39234;53.158;6.322;2022-11-15T16:51:45;5.90;;;3.50;;
53151;SDS011;39234;53.158;6.322;2022-11-15T16:54:14;6.32;;;3.30;;
53151;SDS011;39234;53.158;6.322;2022-11-15T16:56:40;6.93;;;3.33;;
53151;SDS011;39234;53.158;6.322;2022-11-15T16:59:08;5.72;;;3.20;;
53151;SDS011;39234;53.158;6.322;2022-11-15T17:01:38;6.55;;;3.25;;
53151;SDS011;39234;53.158;6.322;2022-11-15T17:04:13;6.07;;;3.13;;
53151;SDS011;39234;53.158;6.322;2022-11-15T17:06:41;8.60;;;3.38;;
53151;SDS011;39234;53.158;6.322;2022-11-15T17:09:26;7.50;;;3.35;;
53151;SDS011;39234;53.158;6.322;2022-11-15T17:11:52;6.38;;;3.10;;
53151;SDS011;39234;53.158;6.322;2022-11-15T17:14:18;5.88;;;2.90;;
53151;SDS011;39234;53.158;6.322;2022-11-15T17:16:44;8.30;;;3.17;;
53151;SDS011;39234;53.158;6.322;2022-11-15T17:21:38;7.03;;;2.97;;